Time;durP1;ratioP1;P1;durP2;ratioP2;P2;SDS_P1;SDS_P2;PMS_P1;PMS_P2;Temp;Humidity;BMP_temperature;BMP_pressure;BME280_temperature;BME280_humidity;BME280_pressure;Samples;Min_cycle;Max_cycle;Signal;HPM_P1;HPM_P2
2023/03/27 07:28:23;;;;;;;0.30;0.30;;;12.40;99.90;16.00;102006.00;;;;6294749;22;1377020;-68
2023/03/27 07:30:59;;;;;;;0.20;0.20;;;13.30;99.90;17.20;101965.00;;;;6338673;22;20163;-68
2023/03/27 07:33:31;;;;;;;0.40;0.40;;;13.50;99.90;17.70;101984.00;;;;6312200;22;20317;-68
2023/03/27 07:36:23;;;;;;;0.20;0.20;;;14.10;99.90;18.10;101972.00;;;;6338908;22;20146;-68
2023/03/27 07:39:24;;;;;;;0.20;0.20;;;14.60;99.90;18.20;101946.00;;;;6338780;22;20633;-68
2023/03/27 07:41:51;;;;;;;0.20;0.20;;;14.80;99.90;17.80;101982.00;;;;6338988;22;20158;-68
2023/03/27 07:44:25;;;;;;;0.20;0.20;;;14.80;99.90;17.30;101985.00;;;;6338770;22;20170;-68
2023/03/27 07:46:54;;;;;;;0.20;0.20;;;14.50;99.90;18.60;101962.00;;;;6340132;22;20171;-69
2023/03/27 07:49:22;;;;;;;0.20;0.20;;;14.90;99.90;18.90;101950.00;;;;6312079;22;20150;-69
2023/03/27 07:51:52;;;;;;;2.03;1.37;;;15.40;99.90;17.90;101981.00;;;;6338836;22;20480;-69
2023/03/27 07:54:20;;;;;;;4.17;0.70;;;14.80;99.90;14.20;102035.00;;;;6338254;22;20169;-68
2023/03/27 07:56:52;;;;;;;0.57;0.57;;;13.10;99.90;12.30;102116.00;;;;6312952;22;20566;-68
2023/03/27 07:59:20;;;;;;;1.27;0.90;;;11.00;99.90;11.00;102177.00;;;;6338623;22;20150;-68
2023/03/27 08:01:49;;;;;;;0.70;0.60;;;9.10;99.90;8.60;102191.00;;;;6338455;22;20137;-65
2023/03/27 08:04:16;;;;;;;0.20;0.20;;;7.60;99.90;8.30;102141.00;;;;6312829;22;20161;-65
2023/03/27 08:06:45;;;;;;;5.97;0.87;;;6.70;99.90;7.60;102101.00;;;;6338811;22;20146;-65
2023/03/27 08:09:14;;;;;;;1.50;0.60;;;6.10;99.90;8.10;102047.00;;;;6338535;22;20152;-65
2023/03/27 08:12:06;;;;;;;1.40;0.60;;;5.90;99.90;9.10;102051.00;;;;6339891;22;20141;-65
2023/03/27 08:14:32;;;;;;;0.20;0.20;;;6.60;99.90;10.90;102051.00;;;;6336756;22;20166;-66
2023/03/27 08:17:01;;;;;;;0.20;0.20;;;7.80;99.90;12.50;102061.00;;;;6337733;22;20145;-67
2023/03/27 08:19:32;;;;;;;0.60;0.60;;;9.20;99.90;12.20;102083.00;;;;6335671;22;20217;-66
2023/03/27 08:21:58;;;;;;;0.30;0.30;;;9.80;99.90;12.50;102071.00;;;;6307687;22;20605;-66
2023/03/27 08:24:26;;;;;;;0.20;0.20;;;9.80;99.90;13.70;102076.00;;;;6334396;22;20163;-66
2023/03/27 08:27:12;;;;;;;0.60;0.60;;;10.20;99.90;13.30;102048.00;;;;6338257;22;20158;-66
2023/03/27 08:29:38;;;;;;;0.20;0.20;;;10.20;99.90;13.90;102035.00;;;;6284802;22;20155;-66
2023/03/27 08:32:09;;;;;;;0.30;0.30;;;10.50;99.90;14.60;102068.00;;;;6283488;22;20667;-66
2023/03/27 08:34:39;;;;;;;0.20;0.20;;;11.10;99.90;14.90;102065.00;;;;6312008;22;20139;-66
2023/03/27 08:37:26;;;;;;;0.20;0.20;;;11.60;99.90;14.80;102032.00;;;;6311477;22;20656;-69
2023/03/27 08:39:57;;;;;;;0.20;0.20;;;11.90;99.90;15.50;102057.00;;;;6285631;22;20153;-69
2023/03/27 08:42:47;;;;;;;0.20;0.20;;;12.30;99.90;16.20;102057.00;;;;6286559;22;20234;-69
2023/03/27 08:45:29;;;;;;;0.10;0.10;;;12.80;99.90;17.20;102029.00;;;;6312570;22;20136;-70
2023/03/27 08:48:31;;;;;;;0.10;0.10;;;13.50;99.90;17.60;102007.00;;;;6285844;22;20157;-71
2023/03/27 08:51:39;;;;;;;0.10;0.10;;;14.10;99.90;17.20;102032.00;;;;6284848;22;20217;-74
2023/03/27 08:54:11;;;;;;;0.67;0.67;;;14.40;99.90;16.30;102051.00;;;;6311697;22;20142;-71
2023/03/27 08:57:00;;;;;;;0.20;0.20;;;13.80;99.90;17.50;102030.00;;;;6339190;22;20159;-71
2023/03/27 08:59:31;;;;;;;0.20;0.20;;;14.10;99.90;16.70;102048.00;;;;6288943;22;20158;-71
2023/03/27 09:02:31;;;;;;;0.20;0.20;;;13.90;99.90;17.20;102038.00;;;;6311996;22;20171;-71
2023/03/27 09:05:36;;;;;;;0.37;0.37;;;13.90;99.90;17.60;102040.00;;;;6311666;22;20475;-71
2023/03/27 09:08:36;;;;;;;0.10;0.10;;;14.30;99.90;17.20;102097.00;;;;6337960;22;20160;-72
2023/03/27 09:11:39;;;;;;;0.67;0.67;;;14.30;99.90;17.60;102144.00;;;;6285400;22;20164;-71
2023/03/27 09:14:40;;;;;;;1.23;1.13;;;14.30;99.90;17.50;102093.00;;;;6311441;22;20155;-65
2023/03/27 09:18:26;;;;;;;3.00;2.90;;;14.40;99.90;17.00;102115.00;;;;6206305;22;20210;-71
2023/03/27 09:21:44;;;;;;;0.10;0.10;;;14.20;99.90;17.00;102101.00;;;;6181727;23;20253;-71
2023/03/27 09:24:45;;;;;;;0.30;0.30;;;13.90;99.90;16.10;102115.00;;;;6145876;23;20579;-68
2023/03/27 09:27:41;;;;;;;0.10;0.10;;;13.70;99.90;15.30;102144.00;;;;6141971;23;20178;-68
2023/03/27 09:31:02;;;;;;;0.10;0.10;;;12.90;99.90;13.50;102158.00;;;;6188870;23;20197;-68
2023/03/27 09:33:40;;;;;;;0.20;0.20;;;11.60;99.90;14.20;102146.00;;;;6187696;23;20214;-68
2023/03/27 09:36:20;;;;;;;0.20;0.20;;;11.50;99.90;14.10;102137.00;;;;6188320;23;20200;-68
2023/03/27 09:38:51;;;;;;;0.20;0.20;;;11.60;99.90;14.90;102137.00;;;;6188727;23;20145;-72
2023/03/27 09:41:38;;;;;;;0.17;0.17;;;11.90;99.90;14.60;102138.00;;;;6163151;23;20204;-72
2023/03/27 09:44:33;;;;;;;0.20;0.20;;;11.80;99.90;14.20;102140.00;;;;6267539;22;20163;-72
2023/03/27 09:47:42;;;;;;;2.37;0.97;;;11.80;99.90;12.20;102205.00;;;;6311554;22;20152;-70
2023/03/27 09:50:32;;;;;;;2.80;1.00;;;10.60;99.90;10.80;102235.00;;;;6319407;22;20161;-67
2023/03/27 09:53:17;;;;;;;0.50;0.50;;;9.60;99.90;11.30;102272.00;;;;6337691;22;20163;-69
2023/03/27 09:56:00;;;;;;;2.13;0.60;;;9.10;99.90;11.10;102288.00;;;;6310062;22;20166;-69
2023/03/27 09:58:39;;;;;;;0.63;0.63;;;9.00;99.90;11.20;102300.00;;;;6337434;22;20157;-72
2023/03/27 10:01:15;;;;;;;0.93;0.37;;;8.90;99.90;11.20;102292.00;;;;6312252;22;20151;-70
2023/03/27 10:03:51;;;;;;;0.10;0.10;;;9.30;99.90;11.30;102306.00;;;;6337771;22;20152;-70
2023/03/27 10:06:42;;;;;;;0.40;0.40;;;9.20;99.90;13.10;102275.00;;;;6311528;22;20183;-70
2023/03/27 10:09:28;;;;;;;0.60;0.60;;;9.90;99.90;13.60;102279.00;;;;6339172;22;20140;-70
2023/03/27 10:12:06;;;;;;;0.20;0.20;;;10.70;99.90;13.40;102222.00;;;;6336840;22;20628;-68
2023/03/27 10:14:42;;;;;;;0.30;0.30;;;10.90;99.90;14.40;102249.00;;;;6339056;22;20192;-70
2023/03/27 10:17:27;;;;;;;0.20;0.20;;;11.30;99.90;15.10;102232.00;;;;6337378;22;20136;-69
2023/03/27 10:20:07;;;;;;;1.33;1.23;;;11.90;99.90;15.30;102214.00;;;;6337567;22;20155;-69
2023/03/27 10:33:40;;;;;;;0.53;0.53;;;10.30;99.90;12.50;102261.00;;;;5061120;28;20551;-70
2023/03/27 10:36:42;;;;;;;0.20;0.20;;;10.50;99.90;12.90;102237.00;;;;5065833;28;20277;-70
2023/03/27 10:39:44;;;;;;;0.20;0.20;;;10.70;99.90;13.70;102228.00;;;;5037143;28;20196;-70
2023/03/27 10:43:11;;;;;;;0.27;0.27;;;11.00;99.90;13.60;102220.00;;;;5049694;28;20245;-70
2023/03/27 10:45:50;;;;;;;0.10;0.10;;;10.90;99.90;13.70;102218.00;;;;5044362;28;20265;-70
2023/03/27 10:48:47;;;;;;;5.67;0.83;;;11.00;99.90;11.90;102246.00;;;;5049043;28;20198;-70
2023/03/27 10:52:15;;;;;;;0.20;0.20;;;10.40;99.90;12.40;102305.00;;;;5051162;28;20186;-70
2023/03/27 10:55:08;;;;;;;0.10;0.10;;;9.70;99.90;12.90;102322.00;;;;5051949;28;20197;-70
2023/03/27 10:58:22;;;;;;;0.20;0.20;;;10.00;99.90;12.10;102339.00;;;;5060872;28;20180;-70
2023/03/27 11:01:31;;;;;;;0.20;0.20;;;9.90;99.90;12.60;102342.00;;;;5060032;28;20223;-71
2023/03/27 11:04:27;;;;;;;0.20;0.20;;;9.70;99.90;12.40;102342.00;;;;5047651;28;20185;-70
2023/03/27 11:07:04;;;;;;;0.20;0.20;;;9.90;99.90;12.50;102328.00;;;;5047957;28;20189;-71
2023/03/27 11:10:01;;;;;;;0.10;0.10;;;9.90;99.90;13.10;102302.00;;;;5049809;28;20219;-70
2023/03/27 11:12:57;;;;;;;0.10;0.10;;;9.90;99.90;12.80;102292.00;;;;5047770;28;20208;-70
2023/03/27 11:16:06;;;;;;;0.20;0.20;;;9.80;99.90;13.80;102260.00;;;;5064568;28;20182;-70
2023/03/27 11:18:38;;;;;;;0.20;0.20;;;10.40;99.90;14.30;102252.00;;;;5063641;28;20186;-70
2023/03/27 11:21:29;;;;;;;0.10;0.10;;;11.00;99.90;13.30;102273.00;;;;5031890;28;20185;-70
2023/03/27 11:23:59;;;;;;;0.10;0.10;;;11.10;99.90;14.40;102250.00;;;;5038935;28;20198;-70
2023/03/27 11:27:27;;;;;;;0.17;0.17;;;11.60;99.90;15.00;102252.00;;;;5049217;28;20171;-70
2023/03/27 11:30:23;;;;;;;3.00;0.80;;;12.00;99.90;13.60;102285.00;;;;5048864;28;20570;-70
2023/03/27 11:33:08;;;;;;;0.10;0.10;;;11.80;99.90;15.60;102256.00;;;;5048587;28;20300;-70
2023/03/27 11:36:31;;;;;;;0.10;0.10;;;12.30;99.90;16.90;102269.00;;;;5048485;28;20180;-71
2023/03/27 11:39:44;;;;;;;0.27;0.27;;;13.40;99.90;16.40;102263.00;;;;5002593;28;20215;-71
2023/03/27 11:46:22;;;;;;;0.30;0.30;;;13.90;99.90;16.30;102290.00;;;;4895307;29;20296;-70
2023/03/27 11:49:45;;;;;;;0.60;0.60;;;13.80;99.90;13.80;102314.00;;;;4985547;28;20208;-70
2023/03/27 11:52:43;;;;;;;0.37;0.37;;;12.70;99.90;13.90;102274.00;;;;4977501;28;20643;-70
2023/03/27 11:55:47;;;;;;;0.10;0.10;;;11.80;99.90;14.20;102301.00;;;;4977661;28;20600;-70
2023/03/27 11:59:03;;;;;;;0.33;0.33;;;11.80;99.90;14.00;102286.00;;;;4999361;28;20196;-70
2023/03/27 12:01:34;;;;;;;0.40;0.40;;;11.50;99.90;14.50;102310.00;;;;5031825;28;20210;-70
2023/03/27 12:04:21;;;;;;;0.10;0.10;;;11.70;99.90;15.70;102290.00;;;;5018000;28;20184;-71
2023/03/27 12:06:59;;;;;;;0.10;0.10;;;12.40;99.90;16.80;102261.00;;;;5034758;28;20210;-71
2023/03/27 12:09:47;;;;;;;0.40;0.40;;;13.20;99.90;13.90;102302.00;;;;5034850;28;20855;-71
2023/03/27 12:12:40;;;;;;;0.60;0.50;;;12.90;99.90;13.40;102317.00;;;;5031780;28;20206;-70
2023/03/27 12:15:42;;;;;;;0.50;0.50;;;11.70;99.90;14.20;102314.00;;;;5034409;28;20551;-70
2023/03/27 12:18:45;;;;;;;0.10;0.10;;;11.40;99.90;13.80;102324.00;;;;5028866;28;20542;-71
2023/03/27 12:21:36;;;;;;;0.13;0.13;;;11.20;99.90;13.90;102323.00;;;;5027813;28;20187;-71
2023/03/27 12:24:51;;;;;;;0.67;0.67;;;11.20;99.90;15.00;102329.00;;;;5047655;28;20176;-71
2023/03/27 12:27:46;;;;;;;0.20;0.20;;;11.60;99.90;15.50;102326.00;;;;5041876;28;20187;-71
2023/03/27 12:30:47;;;;;;;0.10;0.10;;;12.20;99.90;15.60;102322.00;;;;5042167;28;20267;-71
2023/03/27 12:33:59;;;;;;;0.47;0.47;;;12.60;99.90;15.10;102334.00;;;;5043746;28;20219;-71
2023/03/27 12:36:53;;;;;;;0.10;0.10;;;12.40;99.90;15.40;102310.00;;;;5043397;28;20764;-70
2023/03/27 12:39:44;;;;;;;1.07;0.97;;;12.40;99.90;14.70;102341.00;;;;5041786;28;20188;-71
2023/03/27 12:42:53;;;;;;;0.10;0.10;;;12.20;99.90;14.50;102338.00;;;;5042546;28;20190;-71
2023/03/27 12:45:27;;;;;;;0.63;0.33;;;11.90;99.90;15.20;102337.00;;;;5033800;28;20239;-71
2023/03/27 12:48:11;;;;;;;0.30;0.30;;;12.00;99.90;14.60;102324.00;;;;5043381;28;20711;-71
2023/03/27 12:51:18;;;;;;;0.67;0.57;;;12.10;99.90;13.90;102344.00;;;;5042176;28;20191;-71
2023/03/27 12:54:11;;;;;;;0.93;0.93;;;11.90;99.90;12.90;102362.00;;;;5039205;28;20183;-72
2023/03/27 12:56:54;;;;;;;0.20;0.20;;;11.10;99.90;13.80;102362.00;;;;5041334;28;20185;-71
2023/03/27 12:59:41;;;;;;;0.50;0.50;;;11.00;99.90;12.80;102367.00;;;;5041421;28;20189;-70
2023/03/27 13:05:33;;;;;;;0.20;0.20;;;10.30;99.90;12.40;102381.00;;;;5042363;28;20202;-71
2023/03/27 13:08:37;;;;;;;0.50;0.20;;;10.30;99.90;12.30;102342.00;;;;5042070;28;20209;-70
2023/03/27 13:11:17;;;;;;;0.33;0.33;;;10.00;99.90;12.60;102381.00;;;;5041993;28;20193;-70
2023/03/27 13:14:05;;;;;;;3.33;3.23;;;9.90;99.90;13.30;102343.00;;;;5042729;28;20176;-71
2023/03/27 13:17:28;;;;;;;3.50;0.93;;;10.20;99.90;13.10;102363.00;;;;5041871;28;20544;-70
2023/03/27 13:20:26;;;;;;;0.20;0.20;;;10.30;99.90;12.00;102395.00;;;;5000839;28;20662;-71
2023/03/27 13:23:39;;;;;;;0.20;0.20;;;9.80;99.90;11.80;102390.00;;;;4999759;28;20273;-70
2023/03/27 13:26:47;;;;;;;0.20;0.20;;;9.40;99.90;12.40;102374.00;;;;5011631;28;20541;-70
2023/03/27 13:29:36;;;;;;;0.17;0.17;;;9.90;99.90;13.40;102355.00;;;;4961295;28;20198;-70
2023/03/27 13:32:32;;;;;;;0.13;0.13;;;10.30;99.90;13.70;102358.00;;;;4952792;28;20716;-70
2023/03/27 13:35:08;;;;;;;0.30;0.30;;;10.60;99.90;12.50;102374.00;;;;4944250;28;20194;-72
2023/03/27 13:37:41;;;;;;;1.40;1.30;;;10.40;99.90;12.20;102373.00;;;;4960512;28;20182;-72
2023/03/27 13:40:33;;;;;;;0.40;0.40;;;10.00;99.90;12.80;102355.00;;;;5041509;28;20221;-71
2023/03/27 13:43:44;;;;;;;0.30;0.30;;;10.30;99.90;14.00;102361.00;;;;5024010;28;20284;-71
2023/03/27 13:46:32;;;;;;;0.20;0.20;;;10.90;99.90;13.70;102360.00;;;;5042908;28;20183;-72
2023/03/27 13:49:06;;;;;;;0.10;0.10;;;11.00;99.90;14.40;102333.00;;;;5040131;28;20189;-71
2023/03/27 13:52:26;;;;;;;0.17;0.17;;;11.30;99.90;14.90;102357.00;;;;5041409;28;20232;-72
2023/03/27 13:55:18;;;;;;;1.50;1.40;;;11.80;99.90;14.30;102377.00;;;;5041656;28;20183;-71
2023/03/27 13:58:31;;;;;;;0.10;0.10;;;11.50;99.90;13.10;102402.00;;;;5041784;28;20181;-72
2023/03/27 14:01:17;;;;;;;0.40;0.30;;;11.10;99.90;12.00;102440.00;;;;5039585;28;20248;-71
2023/03/27 14:04:09;;;;;;;0.20;0.20;;;10.10;99.90;11.90;102445.00;;;;5041252;28;20234;-71
2023/03/27 14:07:38;;;;;;;0.17;0.17;;;9.60;99.90;13.20;102435.00;;;;5039698;28;20197;-71
2023/03/27 14:10:41;;;;;;;1.50;0.80;;;9.80;99.90;12.70;102451.00;;;;5030788;28;20553;-71
2023/03/27 14:13:44;;;;;;;0.73;0.73;;;10.00;99.90;13.20;102423.00;;;;5027134;28;20252;-72
2023/03/27 14:16:34;;;;;;;0.20;0.20;;;10.20;99.90;13.30;102414.00;;;;5032790;28;20206;-71
2023/03/27 14:19:47;;;;;;;0.77;0.43;;;10.40;99.90;12.40;102409.00;;;;5021632;28;20187;-71
2023/03/27 14:23:02;;;;;;;0.20;0.20;;;10.30;99.90;12.70;102393.00;;;;4991376;28;20202;-71
2023/03/27 14:26:21;;;;;;;0.17;0.17;;;10.20;99.90;13.60;102384.00;;;;4984783;28;20270;-72
2023/03/27 14:29:33;;;;;;;0.20;0.20;;;10.60;99.90;14.00;102381.00;;;;4983181;28;20247;-72
2023/03/27 14:33:09;;;;;;;1.23;0.33;;;10.80;99.90;12.90;102399.00;;;;4975162;28;20811;-71
2023/03/27 14:36:08;;;;;;;0.57;0.50;;;10.70;99.90;13.00;102360.00;;;;4954107;28;20189;-71
2023/03/27 14:39:23;;;;;;;1.03;0.50;;;10.60;99.90;13.20;102389.00;;;;4971794;28;20196;-71
2023/03/27 14:42:01;;;;;;;0.20;0.20;;;10.40;99.90;12.60;102374.00;;;;4986484;28;20277;-71
2023/03/27 14:45:20;;;;;;;0.10;0.10;;;10.40;99.90;13.20;102401.00;;;;4975450;28;20716;-72
2023/03/27 14:51:58;;;;;;;0.50;0.50;;;10.40;99.90;11.90;102417.00;;;;4978516;28;20289;-71
2023/03/27 14:54:42;;;;;;;0.10;0.10;;;10.00;99.90;12.80;102403.00;;;;5035647;28;20251;-72
2023/03/27 14:57:52;;;;;;;0.20;0.20;;;10.00;99.90;12.40;102402.00;;;;5021528;28;20189;-72
2023/03/27 15:00:41;;;;;;;0.10;0.10;;;10.00;99.90;12.90;102415.00;;;;5040068;28;20707;-72
2023/03/27 15:07:21;;;;;;;0.13;0.13;;;10.00;99.90;12.90;102385.00;;;;5054624;28;20212;-72
2023/03/27 15:10:11;;;;;;;0.20;0.20;;;10.00;99.90;12.30;102431.00;;;;5037117;28;20208;-71
2023/03/27 15:12:46;;;;;;;0.40;0.40;;;9.90;99.90;11.60;102438.00;;;;5040812;28;20265;-70
2023/03/27 15:15:39;;;;;;;0.10;0.10;;;9.70;99.90;12.10;102419.00;;;;5040612;28;20194;-72
2023/03/27 15:18:27;;;;;;;0.10;0.10;;;9.50;99.90;12.50;102428.00;;;;5034831;28;20283;-72
2023/03/27 15:21:05;;;;;;;0.53;0.53;;;9.60;99.90;12.00;102456.00;;;;5043921;28;20203;-67
2023/03/27 15:24:05;;;;;;;0.20;0.20;;;9.70;99.90;12.00;102458.00;;;;5043001;28;20188;-71
2023/03/27 15:26:34;;;;;;;0.83;0.40;;;9.70;99.90;11.40;102481.00;;;;5060216;28;20202;-70
2023/03/27 15:29:33;;;;;;;0.20;0.20;;;9.40;99.90;12.20;102472.00;;;;5044198;28;20177;-69
2023/03/27 15:32:07;;;;;;;0.20;0.20;;;9.50;99.90;11.60;102493.00;;;;5042013;28;20223;-69
2023/03/27 15:34:57;;;;;;;0.37;0.37;;;9.50;99.90;11.90;102503.00;;;;5044000;28;20296;-70
2023/03/27 15:37:27;;;;;;;0.30;0.30;;;9.20;99.90;11.50;102494.00;;;;5043485;28;21041;-70
2023/03/27 15:40:14;;;;;;;0.20;0.20;;;9.20;99.90;12.00;102469.00;;;;5042325;28;20274;-71
2023/03/27 15:43:15;;;;;;;4.23;0.20;;;9.20;99.90;11.70;102485.00;;;;5042491;28;20540;-71
2023/03/27 15:49:27;;;;;;;1.50;0.20;;;9.40;99.90;12.30;102476.00;;;;5043367;28;20192;-71
2023/03/27 15:56:15;;;;;;;0.20;0.20;;;9.30;99.90;12.20;102483.00;;;;5038841;28;20222;-71
2023/03/27 15:59:05;;;;;;;0.20;0.20;;;9.20;99.90;12.50;102509.00;;;;5048937;28;20191;-71
2023/03/27 16:02:06;;;;;;;0.13;0.13;;;9.20;99.90;11.60;102518.00;;;;5041262;28;20207;-71
2023/03/27 16:05:20;;;;;;;0.20;0.20;;;9.10;99.90;12.50;102505.00;;;;5041497;28;20194;-71
2023/03/27 16:07:56;;;;;;;0.20;0.20;;;9.20;99.90;11.80;102491.00;;;;5044033;28;20190;-71
2023/03/27 16:10:52;;;;;;;0.53;0.53;;;9.30;99.90;12.90;102494.00;;;;5042656;28;20199;-71
2023/03/27 16:13:57;;;;;;;0.10;0.10;;;9.60;99.90;13.10;102482.00;;;;5040319;28;20230;-71
2023/03/27 16:17:10;;;;;;;0.60;0.47;;;9.80;99.90;12.40;102493.00;;;;4995856;28;20238;-71
2023/03/27 16:20:00;;;;;;;0.20;0.20;;;9.60;99.90;12.10;102503.00;;;;4994689;28;20193;-71
2023/03/27 16:22:44;;;;;;;0.20;0.20;;;9.40;99.90;12.00;102508.00;;;;5043685;28;20199;-71
2023/03/27 16:25:37;;;;;;;0.10;0.10;;;9.50;99.90;12.50;102511.00;;;;5042806;28;20194;-71
2023/03/27 16:28:11;;;;;;;0.20;0.20;;;9.50;99.90;11.90;102527.00;;;;5043389;28;20635;-71
2023/03/27 16:30:46;;;;;;;0.33;0.33;;;9.20;99.90;12.20;102502.00;;;;5041940;28;20278;-71
2023/03/27 16:33:24;;;;;;;0.20;0.20;;;9.20;99.90;11.90;102546.00;;;;5041662;28;20206;-71
2023/03/27 16:36:01;;;;;;;0.10;0.10;;;9.20;99.90;11.80;102523.00;;;;5043129;28;20644;-71
2023/03/27 16:38:38;;;;;;;0.30;0.30;;;9.30;99.90;12.10;102492.00;;;;5042757;28;20651;-71
2023/03/27 16:41:19;;;;;;;0.20;0.20;;;9.20;99.90;12.10;102520.00;;;;5042640;28;20195;-71
2023/03/27 16:44:16;;;;;;;0.30;0.30;;;9.10;99.90;11.10;102532.00;;;;5044282;28;20242;-70
2023/03/27 16:46:55;;;;;;;0.10;0.10;;;8.90;99.90;11.90;102523.00;;;;5051444;28;20198;-71
2023/03/27 16:49:29;;;;;;;3.37;0.77;;;8.80;99.90;11.80;102518.00;;;;5043140;28;20270;-71
2023/03/27 16:52:00;;;;;;;0.10;0.10;;;8.90;99.90;12.00;102476.00;;;;5042191;28;20664;-72
2023/03/27 16:54:29;;;;;;;0.30;0.30;;;8.90;99.90;11.90;102519.00;;;;5042556;28;20177;-71
2023/03/27 16:57:33;;;;;;;0.30;0.30;;;8.80;99.90;11.30;102515.00;;;;5049316;28;20179;-71
2023/03/27 17:00:44;;;;;;;1.70;0.93;;;8.70;99.90;11.50;102520.00;;;;5024510;28;20683;-71
2023/03/27 17:03:15;;;;;;;0.63;0.30;;;8.70;99.90;11.50;102534.00;;;;5030082;28;20274;-71
2023/03/27 17:06:08;;;;;;;0.40;0.40;;;8.70;99.90;11.80;102536.00;;;;5015384;28;20183;-71
2023/03/27 17:08:58;;;;;;;0.53;0.53;;;8.70;99.90;10.80;102571.00;;;;5024961;28;20191;-71
2023/03/27 17:11:34;;;;;;;0.20;0.20;;;8.60;99.90;9.90;102605.00;;;;5027158;28;20218;-71
2023/03/27 17:14:29;;;;;;;0.10;0.10;;;8.00;99.90;10.50;102590.00;;;;5049154;28;20210;-71
2023/03/27 17:17:29;;;;;;;0.20;0.20;;;7.90;99.90;10.30;102606.00;;;;5027168;28;20244;-71
2023/03/27 17:20:34;;;;;;;0.20;0.20;;;7.90;99.90;10.90;102600.00;;;;5012258;28;20286;-71
2023/03/27 17:23:31;;;;;;;0.20;0.20;;;7.80;99.90;11.70;102581.00;;;;5049308;28;20278;-71
2023/03/27 17:26:26;;;;;;;0.20;0.20;;;8.30;99.90;10.90;102597.00;;;;5048197;28;20206;-71
2023/03/27 17:29:09;;;;;;;0.20;0.20;;;8.20;99.90;10.80;102601.00;;;;5039822;28;20197;-71
2023/03/27 17:31:51;;;;;;;0.30;0.30;;;8.10;99.90;11.10;102603.00;;;;5048077;28;20753;-71
2023/03/27 17:34:43;;;;;;;0.20;0.20;;;8.10;99.90;11.00;102592.00;;;;5035892;28;20608;-71
2023/03/27 17:37:35;;;;;;;0.20;0.20;;;8.10;99.90;10.80;102614.00;;;;5032733;28;20213;-71
2023/03/27 17:40:01;;;;;;;0.20;0.20;;;8.00;99.90;10.40;102623.00;;;;5031208;28;20252;-72
2023/03/27 17:42:29;;;;;;;0.20;0.20;;;8.00;99.90;10.30;102638.00;;;;5023568;28;20202;-71
2023/03/27 17:45:51;;;;;;;0.20;0.20;;;7.80;99.90;10.10;102599.00;;;;5041867;28;20274;-71
2023/03/27 17:49:09;;;;;;;0.20;0.20;;;7.70;99.90;10.50;102630.00;;;;5058161;28;20725;-71
2023/03/27 17:52:36;;;;;;;0.20;0.20;;;7.60;99.90;11.00;102631.00;;;;5024184;28;20296;-72
2023/03/27 17:55:16;;;;;;;0.20;0.20;;;7.80;99.90;11.10;102616.00;;;;5039513;28;20753;-71
2023/03/27 17:58:07;;;;;;;0.20;0.20;;;7.90;99.90;10.20;102643.00;;;;5039540;28;20190;-71
2023/03/27 18:01:23;;;;;;;0.30;0.30;;;7.60;99.90;10.50;102635.00;;;;5039646;28;20659;-71
2023/03/27 18:04:29;;;;;;;1.33;1.23;;;7.60;99.90;10.20;102630.00;;;;5040077;28;20190;-71
2023/03/27 18:07:48;;;;;;;0.20;0.20;;;7.60;99.90;10.80;102625.00;;;;5023929;28;20671;-71
2023/03/27 18:10:55;;;;;;;0.33;0.33;;;7.50;99.90;10.60;102629.00;;;;5039855;28;20273;-71
2023/03/27 18:13:55;;;;;;;0.20;0.20;;;7.80;99.90;10.20;102629.00;;;;5023345;28;20701;-71
2023/03/27 18:17:19;;;;;;;0.20;0.20;;;7.50;99.90;10.80;102620.00;;;;5040042;28;20186;-71
2023/03/27 18:20:38;;;;;;;0.30;0.30;;;7.60;99.90;10.90;102603.00;;;;5041173;28;20800;-72
2023/03/27 18:23:33;;;;;;;0.20;0.20;;;7.80;99.90;10.40;102621.00;;;;5041663;28;20551;-71
2023/03/27 18:26:44;;;;;;;0.50;0.50;;;7.60;99.90;10.80;102620.00;;;;5035475;28;20273;-71
2023/03/27 18:30:11;;;;;;;0.20;0.20;;;7.50;99.90;11.10;102597.00;;;;5041628;28;20194;-71
2023/03/27 18:33:32;;;;;;;0.20;0.20;;;7.70;99.90;10.70;102612.00;;;;5039215;28;20326;-71
2023/03/27 18:37:01;;;;;;;0.20;0.20;;;7.50;99.90;10.50;102614.00;;;;5038454;28;20199;-71
2023/03/27 18:39:51;;;;;;;0.20;0.20;;;7.60;99.90;11.10;102564.00;;;;5036576;28;20270;-72
2023/03/27 18:42:45;;;;;;;0.27;0.27;;;7.60;99.90;11.20;102553.00;;;;5042298;28;20193;-71
2023/03/27 18:45:37;;;;;;;0.20;0.20;;;7.70;99.90;11.00;102585.00;;;;5034844;28;20190;-71
2023/03/27 18:48:33;;;;;;;0.20;0.20;;;7.80;99.90;10.40;102611.00;;;;4998395;28;20688;-71
2023/03/27 18:51:34;;;;;;;0.30;0.30;;;7.60;99.90;10.20;102613.00;;;;5040173;28;20190;-71
2023/03/27 18:54:44;;;;;;;0.20;0.20;;;7.50;99.90;10.20;102627.00;;;;5043084;28;20189;-72
2023/03/27 18:57:51;;;;;;;0.20;0.20;;;7.50;99.90;10.40;102622.00;;;;5044119;28;20198;-71
2023/03/27 19:00:42;;;;;;;0.23;0.23;;;7.40;99.90;10.40;102617.00;;;;5044140;28;20201;-72
2023/03/27 19:03:24;;;;;;;0.30;0.30;;;7.50;99.90;10.90;102604.00;;;;5042604;28;20195;-71
2023/03/27 19:06:21;;;;;;;0.20;0.20;;;7.60;99.90;10.10;102621.00;;;;5042921;28;20217;-71
2023/03/27 19:09:16;;;;;;;0.40;0.40;;;7.40;99.90;9.80;102630.00;;;;5052913;28;20231;-71
2023/03/27 19:12:04;;;;;;;0.20;0.20;;;7.20;99.90;10.10;102588.00;;;;5071805;28;20218;-71
2023/03/27 19:14:53;;;;;;;0.20;0.20;;;7.00;99.90;10.30;102621.00;;;;5043247;28;20267;-71
2023/03/27 19:17:46;;;;;;;0.30;0.30;;;7.20;99.90;10.80;102603.00;;;;5043983;28;20284;-71
2023/03/27 19:20:37;;;;;;;0.50;0.50;;;7.30;99.90;11.00;102590.00;;;;5042233;28;20196;-72
2023/03/27 19:23:58;;;;;;;0.40;0.40;;;7.50;99.90;10.40;102589.00;;;;5043659;28;20264;-71
2023/03/27 19:26:47;;;;;;;0.20;0.20;;;7.20;99.90;10.30;102568.00;;;;5029474;28;20197;-71
2023/03/27 19:29:15;;;;;;;0.27;0.27;;;7.10;99.90;10.00;102614.00;;;;5076285;28;20181;-72
2023/03/27 19:34:36;;;;;;;0.20;0.20;;;6.90;99.90;10.20;102596.00;;;;5046076;28;20246;-71
2023/03/27 19:37:25;;;;;;;0.30;0.30;;;6.90;99.90;10.10;102588.00;;;;5042897;28;20224;-71
2023/03/27 19:40:32;;;;;;;0.30;0.30;;;6.80;99.90;10.20;102604.00;;;;5043590;28;20237;-72
2023/03/27 19:43:46;;;;;;;0.20;0.20;;;6.80;99.90;10.40;102592.00;;;;5043270;28;20728;-71
2023/03/27 19:46:35;;;;;;;0.30;0.30;;;7.00;99.90;10.40;102595.00;;;;5043729;28;20193;-71
2023/03/27 19:49:25;;;;;;;0.30;0.30;;;7.10;99.90;10.00;102605.00;;;;5042759;28;20204;-71
2023/03/27 19:52:29;;;;;;;0.30;0.30;;;6.90;99.90;9.80;102608.00;;;;5034577;28;20245;-71
2023/03/27 19:54:59;;;;;;;0.30;0.30;;;6.80;99.90;10.10;102591.00;;;;5041674;28;20208;-70
2023/03/27 19:58:03;;;;;;;0.30;0.30;;;6.80;99.90;9.60;102620.00;;;;5025225;28;20259;-71
2023/03/27 20:00:58;;;;;;;0.30;0.30;;;6.60;99.90;9.90;102576.00;;;;5042332;28;20199;-71
2023/03/27 20:03:49;;;;;;;0.33;0.33;;;6.50;99.90;9.90;102615.00;;;;5042706;28;20295;-71
2023/03/27 20:06:50;;;;;;;0.30;0.30;;;6.60;99.90;9.90;102611.00;;;;5043856;28;20209;-71
2023/03/27 20:09:39;;;;;;;0.30;0.30;;;6.70;99.90;9.60;102621.00;;;;5040786;28;20241;-71
2023/03/27 20:12:25;;;;;;;0.30;0.30;;;6.50;99.90;9.60;102611.00;;;;5043048;28;20211;-71
2023/03/27 20:15:28;;;;;;;1.00;0.60;;;6.40;99.90;10.00;102614.00;;;;5040809;28;20174;-71
2023/03/27 20:18:34;;;;;;;0.23;0.23;;;6.50;99.90;9.30;102617.00;;;;5043242;28;20192;-71
2023/03/27 20:21:36;;;;;;;0.43;0.40;;;6.60;99.90;10.00;102614.00;;;;5057283;28;20254;-71
2023/03/27 20:24:39;;;;;;;0.30;0.30;;;6.60;99.90;10.10;102610.00;;;;5042782;28;20697;-71
2023/03/27 20:27:44;;;;;;;0.20;0.20;;;6.70;99.90;9.80;102606.00;;;;5042496;28;20217;-71
2023/03/27 20:30:38;;;;;;;0.30;0.30;;;6.80;99.90;9.70;102616.00;;;;5042070;28;20188;-71
2023/03/27 20:33:14;;;;;;;1.00;0.93;;;6.80;99.90;8.30;102580.00;;;;5040950;28;20218;-71
2023/03/27 20:36:18;;;;;;;1.23;1.23;;;6.30;99.90;8.60;102602.00;;;;5043013;28;20198;-71
2023/03/27 20:39:13;;;;;;;0.73;0.73;;;6.00;99.90;9.00;102587.00;;;;5042062;28;20187;-71
2023/03/27 20:41:59;;;;;;;0.30;0.30;;;6.00;99.90;8.40;102568.00;;;;5043043;28;20184;-71
2023/03/27 20:44:35;;;;;;;0.20;0.20;;;5.90;99.90;7.80;102581.00;;;;5040890;28;20217;-71
2023/03/27 20:47:37;;;;;;;0.20;0.20;;;5.70;99.90;7.30;102541.00;;;;5041326;28;20177;-71